Time;durP1;ratioP1;P1;durP2;ratioP2;P2;SDS_P1;SDS_P2;PMS_P1;PMS_P2;Temp;Humidity;BMP_temperature;BMP_pressure;BME280_temperature;BME280_humidity;BME280_pressure;Samples;Min_cycle;Max_cycle;Signal;HPM_P1;HPM_P2
2022/10/07 00:01:54;;;;;;;10.50;4.63;;;8.70;86.80;;;;;;5053624;28;20055;-48
2022/10/07 00:04:20;;;;;;;20.25;5.00;;;8.60;86.80;;;;;;5053537;28;20064;-46
2022/10/07 00:06:46;;;;;;;10.70;4.28;;;8.60;86.90;;;;;;5053500;28;20037;-49
2022/10/07 00:09:12;;;;;;;15.95;4.75;;;8.60;87.00;;;;;;5053730;28;20137;-47
2022/10/07 00:11:38;;;;;;;10.13;5.05;;;8.60;87.00;;;;;;5053548;28;20100;-49
2022/10/07 00:14:08;;;;;;;12.23;5.78;;;8.50;87.00;;;;;;5053491;28;20107;-46
2022/10/07 00:16:38;;;;;;;10.95;5.65;;;8.50;87.10;;;;;;5052965;28;20071;-46
2022/10/07 00:19:07;;;;;;;12.30;5.35;;;8.50;87.10;;;;;;5036252;28;20029;-47
2022/10/07 00:21:34;;;;;;;13.02;5.80;;;8.50;87.10;;;;;;5053330;28;20036;-49
2022/10/07 00:24:00;;;;;;;15.75;5.38;;;8.50;87.20;;;;;;5053264;28;20032;-47
2022/10/07 00:26:30;;;;;;;15.90;5.47;;;8.50;87.30;;;;;;5052712;28;20036;-47
2022/10/07 00:28:56;;;;;;;12.20;5.53;;;8.50;87.20;;;;;;5053469;28;20025;-47
2022/10/07 00:31:28;;;;;;;11.65;5.75;;;8.50;87.20;;;;;;5054258;28;20464;-47
2022/10/07 00:33:54;;;;;;;9.98;5.53;;;8.50;87.20;;;;;;5053282;28;20056;-48
2022/10/07 00:36:22;;;;;;;15.73;4.63;;;8.40;87.20;;;;;;5053528;28;20020;-46
2022/10/07 00:38:56;;;;;;;13.95;5.43;;;8.40;87.20;;;;;;5053181;28;20488;-47
2022/10/07 00:41:28;;;;;;;6.47;4.07;;;8.30;87.20;;;;;;5053515;28;20021;-47
2022/10/07 00:43:54;;;;;;;8.70;4.97;;;8.40;87.30;;;;;;5053629;28;20021;-47
2022/10/07 00:46:28;;;;;;;11.48;4.45;;;8.30;87.30;;;;;;5053374;28;20027;-48
2022/10/07 00:49:01;;;;;;;14.45;5.00;;;8.30;87.40;;;;;;5053080;28;20033;-47
2022/10/07 00:51:29;;;;;;;13.48;3.95;;;8.30;87.50;;;;;;5053253;28;20199;-49
2022/10/07 00:53:55;;;;;;;11.00;4.32;;;8.30;87.50;;;;;;5053008;28;20409;-47
2022/10/07 00:56:24;;;;;;;7.90;3.88;;;8.30;87.60;;;;;;5052827;28;20474;-49
2022/10/07 00:58:50;;;;;;;12.10;4.63;;;8.40;87.60;;;;;;5053060;28;20466;-48
2022/10/07 01:01:18;;;;;;;6.38;3.70;;;8.40;87.50;;;;;;5051985;28;20028;-48
2022/10/07 01:03:46;;;;;;;7.28;3.72;;;8.30;87.50;;;;;;5052503;28;20016;-47
2022/10/07 01:06:12;;;;;;;10.18;3.92;;;8.30;87.50;;;;;;5051122;28;20037;-48
2022/10/07 01:08:39;;;;;;;13.75;4.07;;;8.30;87.40;;;;;;5052507;28;20353;-48
2022/10/07 01:11:38;;;;;;;12.35;4.30;;;8.30;87.50;;;;;;5052601;28;20103;-48
2022/10/07 01:14:17;;;;;;;9.38;4.07;;;8.30;87.40;;;;;;5052623;28;20477;-48
2022/10/07 01:16:49;;;;;;;7.75;3.55;;;8.30;87.60;;;;;;5050754;28;20561;-46
2022/10/07 01:19:37;;;;;;;7.32;3.75;;;8.30;87.60;;;;;;5052456;28;20028;-48
2022/10/07 01:22:21;;;;;;;8.52;4.00;;;8.30;87.60;;;;;;5050959;28;20021;-48
2022/10/07 01:25:12;;;;;;;11.70;4.43;;;8.30;87.60;;;;;;5052383;28;20083;-48
2022/10/07 01:27:42;;;;;;;8.48;4.00;;;8.30;87.50;;;;;;5052662;28;20021;-47
2022/10/07 01:30:09;;;;;;;9.13;3.85;;;8.20;87.50;;;;;;5052740;28;20306;-48
2022/10/07 01:33:11;;;;;;;11.00;3.83;;;8.30;87.60;;;;;;5052405;28;20029;-49
2022/10/07 01:35:39;;;;;;;8.32;4.35;;;8.20;87.60;;;;;;5051289;28;20432;-47
2022/10/07 01:38:09;;;;;;;11.07;4.45;;;8.20;87.50;;;;;;5054177;28;20499;-47
2022/10/07 01:40:46;;;;;;;9.87;3.93;;;8.10;87.50;;;;;;5055142;28;20090;-49
2022/10/07 01:43:15;;;;;;;11.63;4.07;;;8.10;87.50;;;;;;5056849;28;20104;-47
2022/10/07 01:45:42;;;;;;;11.80;4.38;;;8.10;87.60;;;;;;5056509;28;20025;-46
2022/10/07 01:48:08;;;;;;;8.05;4.03;;;8.10;87.60;;;;;;5056398;28;20358;-47
2022/10/07 01:50:34;;;;;;;11.27;4.38;;;8.00;87.70;;;;;;5056687;28;20158;-48
2022/10/07 01:53:16;;;;;;;12.82;3.70;;;8.00;87.70;;;;;;5056193;28;20028;-46
2022/10/07 01:56:25;;;;;;;8.00;3.33;;;8.10;87.80;;;;;;5056405;28;20071;-49
2022/10/07 01:59:09;;;;;;;6.93;3.47;;;8.10;87.60;;;;;;5054846;28;20029;-46
2022/10/07 02:02:03;;;;;;;7.68;3.90;;;8.10;87.60;;;;;;5055980;28;20021;-48
2022/10/07 02:04:47;;;;;;;7.78;2.95;;;8.20;87.70;;;;;;5056562;28;20028;-48
2022/10/07 02:07:28;;;;;;;9.90;5.03;;;8.10;87.70;;;;;;5055954;28;20167;-48
2022/10/07 02:10:06;;;;;;;14.23;5.50;;;8.10;87.80;;;;;;5056286;28;20028;-47
2022/10/07 02:12:41;;;;;;;8.57;3.33;;;8.10;87.90;;;;;;5055961;28;20072;-46
2022/10/07 02:15:16;;;;;;;10.25;4.30;;;8.20;87.90;;;;;;5056181;28;20029;-46
2022/10/07 02:17:53;;;;;;;10.82;3.92;;;8.20;87.90;;;;;;5055843;28;20453;-47
2022/10/07 02:20:24;;;;;;;15.30;4.95;;;8.20;87.90;;;;;;5055987;28;20017;-47
2022/10/07 02:22:52;;;;;;;12.75;4.22;;;8.30;87.90;;;;;;5055935;28;20392;-46
2022/10/07 02:25:20;;;;;;;15.13;5.13;;;8.30;87.70;;;;;;5055627;28;20021;-48
2022/10/07 02:27:49;;;;;;;14.60;4.50;;;8.30;87.60;;;;;;5055409;28;20366;-47
2022/10/07 02:30:17;;;;;;;11.95;3.95;;;8.30;87.50;;;;;;5054078;28;20053;-45
2022/10/07 02:32:52;;;;;;;13.90;4.10;;;8.30;87.50;;;;;;5055353;28;20035;-46
2022/10/07 02:35:52;;;;;;;13.00;4.95;;;8.30;87.50;;;;;;5055635;28;20098;-45
2022/10/07 02:38:18;;;;;;;13.18;5.32;;;8.40;87.30;;;;;;5053990;28;20122;-48
2022/10/07 02:41:07;;;;;;;14.02;5.22;;;8.40;87.00;;;;;;5055333;28;20021;-49
2022/10/07 02:43:41;;;;;;;11.88;4.32;;;8.30;87.00;;;;;;5055482;28;20036;-46
2022/10/07 02:46:23;;;;;;;16.13;5.82;;;8.40;87.00;;;;;;5055321;28;20025;-46
2022/10/07 02:49:08;;;;;;;9.68;4.90;;;8.40;87.00;;;;;;5053341;28;20128;-45
2022/10/07 02:52:00;;;;;;;9.40;4.20;;;8.40;86.90;;;;;;5055024;28;20029;-48
2022/10/07 02:54:38;;;;;;;6.13;4.32;;;8.40;86.90;;;;;;5054965;28;20025;-48
2022/10/07 02:57:04;;;;;;;10.40;5.80;;;8.30;86.80;;;;;;5055472;28;20037;-45
2022/10/07 02:59:32;;;;;;;12.60;4.32;;;8.30;86.90;;;;;;5054750;28;20063;-46
2022/10/07 03:02:01;;;;;;;17.75;4.63;;;8.30;86.80;;;;;;5053469;28;20179;-47
2022/10/07 03:04:27;;;;;;;10.45;4.57;;;8.40;86.80;;;;;;5054606;28;20388;-46
2022/10/07 03:06:53;;;;;;;10.20;4.60;;;8.40;86.60;;;;;;5054745;28;20166;-50
2022/10/07 03:09:19;;;;;;;16.08;6.10;;;8.40;86.40;;;;;;5055361;28;20063;-48
2022/10/07 03:11:45;;;;;;;12.30;4.80;;;8.30;86.40;;;;;;5055476;28;20031;-47
2022/10/07 03:14:11;;;;;;;13.23;6.10;;;8.40;86.40;;;;;;5054267;28;20021;-50
2022/10/07 03:16:37;;;;;;;10.00;4.65;;;8.40;86.50;;;;;;5054832;28;20071;-56
2022/10/07 03:19:03;;;;;;;13.30;5.57;;;8.40;86.30;;;;;;5055131;28;20025;-48
2022/10/07 03:21:32;;;;;;;15.05;4.53;;;8.50;86.30;;;;;;5055228;28;20021;-47
2022/10/07 03:24:03;;;;;;;12.93;5.68;;;8.60;86.30;;;;;;5055358;28;20465;-48
2022/10/07 03:26:32;;;;;;;11.48;4.53;;;8.70;86.10;;;;;;5055736;28;20033;-48
2022/10/07 03:28:59;;;;;;;13.98;5.07;;;8.70;86.00;;;;;;5055279;28;20035;-47
2022/10/07 03:31:26;;;;;;;11.25;5.85;;;8.80;85.80;;;;;;5055136;28;20025;-48
2022/10/07 03:33:54;;;;;;;11.88;4.63;;;8.80;85.50;;;;;;5055223;28;20531;-48
2022/10/07 03:36:19;;;;;;;9.90;5.13;;;8.80;85.50;;;;;;5054970;28;20057;-49
2022/10/07 03:38:45;;;;;;;8.02;3.42;;;8.80;85.40;;;;;;5055043;28;20067;-46
2022/10/07 03:41:11;;;;;;;9.07;4.35;;;8.90;85.40;;;;;;5054200;28;20021;-48
2022/10/07 03:43:36;;;;;;;9.70;4.57;;;8.90;85.30;;;;;;5054386;28;20066;-49
2022/10/07 03:46:02;;;;;;;12.00;4.78;;;8.90;85.30;;;;;;5054296;28;20025;-48
2022/10/07 03:48:31;;;;;;;13.90;6.25;;;8.90;85.30;;;;;;5054287;28;20434;-47
2022/10/07 03:50:57;;;;;;;7.75;4.10;;;9.10;85.20;;;;;;5053952;28;20101;-48
2022/10/07 03:53:25;;;;;;;12.07;4.65;;;9.10;84.70;;;;;;5054283;28;20139;-47
2022/10/07 03:55:51;;;;;;;12.07;4.50;;;9.10;84.50;;;;;;5053900;28;20074;-47
2022/10/07 03:58:17;;;;;;;9.07;3.83;;;9.10;84.20;;;;;;5053776;28;20607;-48
2022/10/07 04:00:42;;;;;;;15.10;4.13;;;9.00;84.40;;;;;;5052891;28;20040;-47
2022/10/07 04:03:08;;;;;;;9.65;4.43;;;8.90;84.60;;;;;;5053840;28;20024;-50
2022/10/07 04:05:35;;;;;;;11.05;3.65;;;9.00;84.30;;;;;;5053634;28;20021;-47
2022/10/07 04:08:03;;;;;;;12.07;3.92;;;9.00;84.20;;;;;;5053692;28;20055;-48
2022/10/07 04:10:29;;;;;;;16.17;4.63;;;9.00;84.10;;;;;;5053636;28;20109;-47
2022/10/07 04:12:55;;;;;;;12.15;3.35;;;9.00;84.10;;;;;;5053736;28;20024;-47
2022/10/07 04:15:21;;;;;;;10.43;3.83;;;8.90;84.00;;;;;;5053347;28;20021;-45
2022/10/07 04:17:48;;;;;;;15.40;3.97;;;8.90;84.00;;;;;;5053720;28;20379;-47
2022/10/07 04:20:15;;;;;;;8.23;3.67;;;8.90;84.20;;;;;;5053365;28;20070;-46
2022/10/07 04:22:41;;;;;;;9.43;3.72;;;8.80;84.10;;;;;;5053409;28;20080;-46
2022/10/07 04:27:55;;;;;;;11.38;3.42;;;8.80;84.00;;;;;;5054296;28;20055;-47
2022/10/07 04:30:22;;;;;;;12.63;2.90;;;8.90;84.00;;;;;;5053379;28;20089;-47
2022/10/07 04:32:49;;;;;;;8.00;3.00;;;8.80;83.90;;;;;;5053223;28;20021;-47
2022/10/07 04:35:16;;;;;;;7.60;2.85;;;8.80;84.00;;;;;;5053562;28;20049;-48
2022/10/07 04:37:42;;;;;;;11.48;3.10;;;8.80;84.00;;;;;;5053714;28;20025;-47
2022/10/07 04:40:09;;;;;;;7.80;2.30;;;8.80;84.00;;;;;;5054125;28;20381;-47
2022/10/07 04:45:19;;;;;;;9.95;3.05;;;8.70;84.20;;;;;;5053772;28;20047;-46
2022/10/07 04:47:45;;;;;;;5.85;2.67;;;8.80;84.50;;;;;;5053580;28;20029;-46
2022/10/07 04:50:11;;;;;;;9.10;2.63;;;8.80;84.40;;;;;;5053365;28;20083;-47
2022/10/07 04:52:43;;;;;;;8.13;3.17;;;8.80;84.40;;;;;;5053430;28;20029;-46
2022/10/07 04:55:13;;;;;;;7.40;3.15;;;8.80;84.40;;;;;;5054050;28;20025;-46
2022/10/07 04:57:38;;;;;;;8.70;2.53;;;8.80;84.40;;;;;;5053427;28;20048;-47
2022/10/07 05:00:06;;;;;;;10.73;3.00;;;8.80;84.20;;;;;;5052117;28;20128;-48
2022/10/07 05:02:32;;;;;;;8.95;2.83;;;8.80;84.20;;;;;;5053000;28;20025;-48
2022/10/07 05:04:58;;;;;;;14.98;3.60;;;8.80;84.20;;;;;;5052790;28;20075;-46
2022/10/07 05:07:24;;;;;;;6.30;1.92;;;8.80;84.20;;;;;;5051410;28;20075;-47
2022/10/07 05:09:50;;;;;;;4.60;2.15;;;8.80;84.10;;;;;;5052861;28;20025;-47
2022/10/07 05:12:16;;;;;;;6.53;2.40;;;8.80;83.90;;;;;;5051579;28;20086;-46
2022/10/07 05:14:43;;;;;;;8.20;4.30;;;8.80;84.00;;;;;;5052899;28;20044;-46
2022/10/07 05:17:09;;;;;;;11.10;2.67;;;8.80;84.00;;;;;;5052497;28;20068;-47
2022/10/07 05:19:34;;;;;;;13.20;2.58;;;8.80;84.00;;;;;;5053338;28;20037;-47
2022/10/07 05:22:01;;;;;;;6.75;3.47;;;8.80;84.00;;;;;;5052674;28;20044;-47
2022/10/07 05:24:28;;;;;;;9.05;4.03;;;8.80;84.20;;;;;;5051056;28;20021;-47
2022/10/07 17:14:54;;;;;;;9.90;2.40;;;14.80;63.70;;;;;;5071171;28;20460;-48
2022/10/07 17:17:20;;;;;;;13.52;4.82;;;14.80;64.30;;;;;;5071000;28;20032;-50
2022/10/07 17:19:46;;;;;;;8.98;3.25;;;14.80;64.30;;;;;;5070184;28;20035;-48
2022/10/07 17:22:12;;;;;;;12.65;3.42;;;14.80;64.70;;;;;;5070716;28;20024;-49
2022/10/07 17:24:38;;;;;;;9.48;3.95;;;14.80;64.80;;;;;;5073829;28;20048;-48
2022/10/07 17:27:06;;;;;;;22.10;5.22;;;14.70;65.20;;;;;;5073961;28;20043;-46
2022/10/07 17:29:33;;;;;;;13.77;5.35;;;14.60;65.60;;;;;;5071859;28;20021;-47
2022/10/07 17:31:58;;;;;;;16.88;6.80;;;14.50;66.10;;;;;;5069866;28;20107;-47
2022/10/07 17:34:24;;;;;;;20.55;6.18;;;14.40;66.90;;;;;;5068342;28;20450;-48
2022/10/07 17:36:49;;;;;;;14.98;6.50;;;14.30;67.50;;;;;;5071032;28;20106;-47
2022/10/07 17:39:16;;;;;;;15.18;6.40;;;14.30;67.40;;;;;;5072911;28;20028;-48
2022/10/07 17:41:41;;;;;;;16.80;5.05;;;14.30;67.10;;;;;;5073274;28;20017;-49
2022/10/07 17:44:10;;;;;;;18.60;6.60;;;14.40;66.70;;;;;;5070313;28;20056;-46
2022/10/07 17:46:38;;;;;;;14.32;5.43;;;14.30;67.10;;;;;;5068719;28;20028;-46
2022/10/07 17:49:06;;;;;;;14.52;5.55;;;14.30;67.30;;;;;;5069545;28;20429;-47
2022/10/07 17:51:31;;;;;;;14.90;6.80;;;14.20;67.70;;;;;;5069392;28;20393;-47
2022/10/07 17:53:59;;;;;;;18.83;4.75;;;14.10;68.10;;;;;;5069555;28;20111;-47
2022/10/07 17:56:26;;;;;;;19.58;5.07;;;14.00;68.70;;;;;;5070127;28;20464;-42
2022/10/07 17:58:52;;;;;;;17.27;7.60;;;13.80;69.50;;;;;;5052045;28;20051;-46
2022/10/07 18:01:26;;;;;;;13.98;5.38;;;13.80;69.90;;;;;;5069958;28;20024;-49
2022/10/07 18:03:59;;;;;;;12.55;5.90;;;13.70;70.60;;;;;;5070796;28;20397;-47
2022/10/07 18:06:26;;;;;;;15.70;6.20;;;13.60;71.30;;;;;;5069045;28;20109;-48
2022/10/07 18:08:52;;;;;;;17.05;5.30;;;13.60;71.60;;;;;;5070723;28;20021;-49
2022/10/07 18:11:18;;;;;;;15.40;5.65;;;13.50;71.70;;;;;;5070141;28;20036;-49
2022/10/07 18:16:34;;;;;;;18.10;7.07;;;13.30;72.00;;;;;;5069257;28;20024;-47
2022/10/07 18:19:00;;;;;;;19.85;7.30;;;13.30;72.40;;;;;;5068883;28;20112;-48
2022/10/07 18:21:29;;;;;;;15.43;6.07;;;13.30;72.30;;;;;;5069588;28;20025;-47
2022/10/07 18:23:56;;;;;;;15.13;5.53;;;13.30;72.70;;;;;;5068688;28;20032;-50
2022/10/07 18:26:22;;;;;;;14.13;5.97;;;13.20;73.30;;;;;;5055228;28;20370;-48
2022/10/07 18:28:48;;;;;;;12.65;4.80;;;13.10;74.10;;;;;;5055545;28;20028;-48
2022/10/07 18:31:16;;;;;;;19.33;6.60;;;13.00;74.60;;;;;;5056438;28;20032;-50
2022/10/07 18:33:42;;;;;;;15.50;7.05;;;12.90;74.90;;;;;;5055287;28;20025;-46
2022/10/07 18:36:09;;;;;;;26.13;8.00;;;12.90;75.30;;;;;;5055656;28;20100;-50
2022/10/07 18:38:37;;;;;;;20.23;8.15;;;12.80;75.00;;;;;;5056484;28;20449;-48
2022/10/07 18:41:05;;;;;;;17.63;5.07;;;12.90;75.00;;;;;;5055526;28;20025;-46
2022/10/07 18:43:31;;;;;;;12.60;4.70;;;12.90;74.90;;;;;;5056497;28;20442;-40
2022/10/07 18:46:03;;;;;;;16.00;4.25;;;12.90;75.20;;;;;;5056214;28;20344;-38
2022/10/07 18:48:34;;;;;;;20.17;5.97;;;12.90;74.80;;;;;;5056209;28;20406;-38
2022/10/07 18:51:01;;;;;;;14.00;4.55;;;12.80;74.90;;;;;;5056683;28;20056;-39
2022/10/07 18:53:29;;;;;;;19.20;4.90;;;12.80;75.20;;;;;;5055659;28;20420;-41
2022/10/07 18:56:00;;;;;;;16.35;4.55;;;12.80;75.30;;;;;;5057462;28;20017;-41
2022/10/07 18:58:25;;;;;;;11.32;5.53;;;12.80;75.50;;;;;;5058166;28;20028;-40
2022/10/07 19:00:51;;;;;;;16.42;5.45;;;12.80;75.50;;;;;;5055252;28;20025;-40
2022/10/07 19:03:17;;;;;;;12.20;5.65;;;12.80;75.60;;;;;;5055971;28;20033;-39
2022/10/07 19:05:42;;;;;;;16.33;5.03;;;12.80;76.00;;;;;;5054878;28;20064;-40
2022/10/07 19:08:08;;;;;;;10.18;3.67;;;12.70;76.00;;;;;;5055033;28;20112;-39
2022/10/07 19:10:41;;;;;;;8.00;3.47;;;12.60;76.00;;;;;;5055788;28;20504;-51
2022/10/07 19:16:03;;;;;;;13.68;4.40;;;12.60;76.40;;;;;;5055037;28;20028;-48
2022/10/07 19:18:32;;;;;;;12.43;5.18;;;12.60;76.50;;;;;;5055554;28;20428;-49
2022/10/07 19:20:59;;;;;;;16.10;4.38;;;12.50;76.40;;;;;;5055148;28;20025;-47
2022/10/07 19:23:26;;;;;;;14.40;4.93;;;12.50;76.50;;;;;;5055175;28;20025;-47
2022/10/07 19:25:55;;;;;;;15.75;5.50;;;12.50;76.70;;;;;;5055269;28;20094;-48
2022/10/07 19:28:22;;;;;;;14.15;5.53;;;12.50;76.90;;;;;;5055157;28;20491;-49
2022/10/07 19:30:48;;;;;;;13.43;5.13;;;12.50;77.00;;;;;;5055732;28;20017;-47
2022/10/07 19:33:14;;;;;;;22.73;4.75;;;12.40;77.20;;;;;;5055881;28;20036;-49
2022/10/07 19:35:41;;;;;;;11.98;5.18;;;12.40;77.30;;;;;;5055313;28;20045;-51
2022/10/07 19:38:07;;;;;;;16.58;4.30;;;12.40;77.40;;;;;;5054361;28;20500;-46
2022/10/07 19:40:41;;;;;;;16.70;6.57;;;12.30;77.60;;;;;;5055549;28;20013;-49
2022/10/07 19:43:09;;;;;;;9.05;4.85;;;12.40;77.70;;;;;;5056248;28;20100;-48
2022/10/07 19:45:39;;;;;;;11.18;4.82;;;12.30;77.90;;;;;;5056233;28;20477;-51
2022/10/07 19:48:06;;;;;;;14.27;6.30;;;12.30;78.20;;;;;;5054418;28;20120;-50
2022/10/07 19:50:35;;;;;;;19.38;5.28;;;12.20;78.70;;;;;;5055676;28;20107;-49
2022/10/07 19:53:01;;;;;;;15.88;5.53;;;12.20;78.90;;;;;;5055006;28;20059;-51
2022/10/07 19:55:32;;;;;;;19.48;6.63;;;11.90;79.30;;;;;;5055233;28;20036;-48
2022/10/07 19:57:59;;;;;;;19.83;7.35;;;11.90;79.70;;;;;;5054016;28;20044;-48
2022/10/07 20:00:28;;;;;;;12.70;5.22;;;11.80;80.00;;;;;;5053203;28;20484;-48
2022/10/07 20:02:55;;;;;;;12.82;5.75;;;11.70;80.30;;;;;;5055520;28;20025;-50
2022/10/07 20:05:27;;;;;;;18.75;6.28;;;11.70;80.60;;;;;;5053240;28;20107;-47
2022/10/07 20:07:56;;;;;;;18.23;6.70;;;11.60;80.90;;;;;;5054465;28;20028;-47
2022/10/07 20:10:23;;;;;;;17.60;7.50;;;11.50;81.10;;;;;;5054155;28;20128;-47
2022/10/07 20:12:50;;;;;;;25.50;8.13;;;11.50;81.50;;;;;;5053383;28;20053;-49
2022/10/07 20:15:16;;;;;;;17.40;6.88;;;11.40;81.70;;;;;;5053667;28;20029;-49
2022/10/07 20:17:43;;;;;;;21.40;7.68;;;11.40;82.00;;;;;;5054476;28;20127;-50
2022/10/07 20:20:13;;;;;;;16.92;6.57;;;11.40;82.30;;;;;;5053314;28;20377;-47
2022/10/07 20:22:40;;;;;;;13.77;5.68;;;11.40;82.40;;;;;;5052439;28;20109;-48
2022/10/07 20:25:06;;;;;;;21.30;6.82;;;11.30;82.60;;;;;;5053364;28;20039;-48
2022/10/07 20:27:32;;;;;;;15.95;5.25;;;11.30;82.80;;;;;;5052072;28;20025;-49
2022/10/07 20:30:05;;;;;;;13.75;5.22;;;11.30;83.00;;;;;;5053471;28;20021;-47
2022/10/07 20:32:34;;;;;;;17.02;5.88;;;11.30;82.90;;;;;;5053616;28;20098;-50
2022/10/07 20:35:00;;;;;;;22.67;6.03;;;11.30;82.90;;;;;;5053871;28;20321;-47
2022/10/07 20:37:26;;;;;;;14.38;5.15;;;11.30;83.00;;;;;;5053454;28;20352;-47
2022/10/07 20:42:36;;;;;;;14.05;4.47;;;11.30;82.80;;;;;;5053401;28;20032;-49
2022/10/07 20:45:02;;;;;;;16.13;4.40;;;11.30;82.60;;;;;;5053169;28;20025;-49
2022/10/07 20:47:31;;;;;;;23.63;6.93;;;11.30;82.50;;;;;;5053856;28;20354;-49
2022/10/07 20:49:58;;;;;;;16.38;4.55;;;11.30;82.70;;;;;;5053150;28;20053;-48
2022/10/07 20:52:26;;;;;;;10.27;5.32;;;11.30;82.50;;;;;;5053273;28;20469;-48
2022/10/07 20:54:52;;;;;;;16.13;5.57;;;11.30;82.50;;;;;;5052857;28;20025;-47
2022/10/07 20:57:24;;;;;;;16.27;5.43;;;11.30;82.60;;;;;;5053409;28;20465;-53
2022/10/07 20:59:50;;;;;;;16.27;4.78;;;11.30;82.70;;;;;;5052849;28;20057;-49
2022/10/07 21:02:19;;;;;;;21.42;4.57;;;11.30;82.70;;;;;;5053449;28;20108;-47
2022/10/07 21:04:47;;;;;;;18.50;5.22;;;11.30;82.20;;;;;;5053389;28;20071;-47
2022/10/07 21:07:15;;;;;;;14.65;6.95;;;11.30;82.50;;;;;;5052951;28;20105;-48
2022/10/07 21:09:41;;;;;;;20.85;7.07;;;11.20;82.70;;;;;;5052948;28;20071;-46
2022/10/07 21:12:10;;;;;;;13.95;4.63;;;11.20;83.00;;;;;;5053298;28;20033;-48
2022/10/07 21:14:36;;;;;;;11.70;4.13;;;11.10;83.10;;;;;;5052634;28;20044;-48
2022/10/07 21:17:04;;;;;;;12.05;5.07;;;11.10;83.20;;;;;;5054720;28;20399;-46
2022/10/07 21:19:34;;;;;;;9.65;4.25;;;11.10;83.40;;;;;;5054219;28;20396;-48
2022/10/07 21:22:01;;;;;;;18.48;5.85;;;11.00;83.30;;;;;;5054382;28;20028;-48
2022/10/07 21:24:27;;;;;;;19.67;4.75;;;11.10;83.50;;;;;;5053688;28;20090;-48
2022/10/07 21:26:56;;;;;;;19.52;6.18;;;11.10;83.50;;;;;;5053291;28;20110;-48
2022/10/07 21:29:21;;;;;;;16.73;5.40;;;11.10;83.50;;;;;;5052494;28;20374;-47
2022/10/07 21:31:47;;;;;;;13.65;5.68;;;11.10;83.20;;;;;;5052893;28;20180;-48
2022/10/07 21:34:12;;;;;;;16.55;5.07;;;11.10;83.30;;;;;;5052480;28;20053;-48
2022/10/07 21:36:44;;;;;;;12.65;5.57;;;11.10;83.40;;;;;;5052494;28;20032;-50
2022/10/07 21:39:12;;;;;;;18.63;4.85;;;11.00;83.40;;;;;;5051567;28;20099;-48
2022/10/07 21:41:39;;;;;;;14.95;3.92;;;11.00;83.40;;;;;;5051770;28;20021;-48
2022/10/07 21:44:08;;;;;;;12.43;4.78;;;11.00;83.40;;;;;;5052943;28;20033;-48
2022/10/07 21:46:35;;;;;;;14.48;4.10;;;11.00;83.40;;;;;;5051277;28;20025;-55
2022/10/07 21:49:01;;;;;;;13.75;3.80;;;11.00;83.50;;;;;;5052667;28;20028;-47
2022/10/07 21:51:28;;;;;;;14.30;4.97;;;11.00;83.60;;;;;;5051014;28;20432;-48
2022/10/07 21:53:57;;;;;;;17.98;4.80;;;10.90;83.70;;;;;;5052763;28;20056;-47
2022/10/07 21:56:23;;;;;;;21.92;5.40;;;10.90;83.80;;;;;;5052793;28;20032;-47
2022/10/07 21:58:51;;;;;;;17.02;4.90;;;10.90;83.90;;;;;;5052284;28;20372;-47
2022/10/07 22:01:19;;;;;;;15.63;5.25;;;10.90;84.00;;;;;;5055360;28;20380;-46
2022/10/07 22:03:45;;;;;;;17.73;4.72;;;10.90;84.00;;;;;;5056264;28;20037;-48
2022/10/07 22:06:13;;;;;;;17.92;5.88;;;10.90;83.80;;;;;;5056198;28;20483;-47
2022/10/07 22:08:41;;;;;;;14.02;5.10;;;10.80;84.20;;;;;;5056243;28;20021;-47
2022/10/07 22:11:18;;;;;;;16.17;4.50;;;10.80;84.20;;;;;;5056300;28;20039;-46
2022/10/07 22:13:50;;;;;;;16.17;5.22;;;10.70;84.40;;;;;;5056350;28;20056;-49
2022/10/07 22:16:17;;;;;;;34.90;6.60;;;10.70;84.70;;;;;;5056708;28;20075;-49
2022/10/07 22:18:48;;;;;;;15.27;7.00;;;10.60;84.60;;;;;;5056301;28;20033;-48
2022/10/07 22:21:18;;;;;;;19.00;6.13;;;10.50;84.80;;;;;;5057094;28;20025;-51
2022/10/07 22:23:49;;;;;;;19.27;4.82;;;10.50;85.40;;;;;;5056256;28;20060;-46
2022/10/07 22:26:16;;;;;;;13.65;4.25;;;10.80;84.70;;;;;;5058602;28;20485;-49
2022/10/07 22:28:42;;;;;;;18.38;4.78;;;10.80;84.40;;;;;;5064743;28;20025;-47
2022/10/07 22:31:13;;;;;;;15.85;4.28;;;10.80;84.50;;;;;;5064242;28;20025;-47
2022/10/07 22:33:40;;;;;;;19.20;4.82;;;10.90;84.10;;;;;;5044268;28;20025;-47
2022/10/07 22:36:08;;;;;;;12.18;5.40;;;10.90;83.70;;;;;;5054223;28;20021;-48
2022/10/07 22:38:34;;;;;;;15.43;5.45;;;10.90;83.90;;;;;;5055380;28;20338;-50
2022/10/07 22:41:08;;;;;;;10.25;4.88;;;10.80;83.70;;;;;;5055730;28;20484;-46
2022/10/07 22:43:38;;;;;;;23.20;5.07;;;10.80;83.90;;;;;;5054199;28;20105;-45
2022/10/07 22:46:05;;;;;;;20.17;5.85;;;10.80;84.00;;;;;;5055262;28;20083;-47
2022/10/07 22:48:34;;;;;;;14.90;3.95;;;10.80;83.70;;;;;;5055836;28;20112;-48
2022/10/07 22:51:05;;;;;;;20.40;5.25;;;10.80;84.00;;;;;;5055263;28;20431;-47
2022/10/07 22:53:31;;;;;;;;;;;10.80;84.10;;;;;;5056071;28;20083;-45
2022/10/07 22:56:05;;;;;;;18.63;4.88;;;10.80;83.90;;;;;;5055258;28;19958;-47
2022/10/07 22:58:31;;;;;;;14.55;3.65;;;10.80;84.10;;;;;;5055219;28;20043;-48
2022/10/07 23:01:05;;;;;;;27.52;4.10;;;10.90;83.90;;;;;;5055163;28;20469;-47
2022/10/07 23:03:31;;;;;;;12.30;3.22;;;10.80;84.20;;;;;;5055383;28;20029;-46
2022/10/07 23:06:00;;;;;;;10.60;3.40;;;10.80;84.30;;;;;;5054997;28;20071;-45
2022/10/07 23:08:26;;;;;;;10.88;3.20;;;10.90;84.20;;;;;;5054971;28;20025;-47
2022/10/07 23:10:56;;;;;;;10.02;3.33;;;10.90;84.10;;;;;;5055462;28;20503;-47
2022/10/07 23:13:22;;;;;;;30.98;4.80;;;10.90;83.90;;;;;;5054759;28;20048;-39
2022/10/07 23:15:58;;;;;;;12.68;3.22;;;11.00;83.50;;;;;;5055322;28;20449;-38
2022/10/07 23:18:25;;;;;;;9.90;4.05;;;11.00;83.50;;;;;;5055097;28;20087;-38
2022/10/07 23:21:06;;;;;;;11.50;2.85;;;11.00;83.70;;;;;;5055030;28;20081;-38
2022/10/07 23:23:35;;;;;;;17.05;4.05;;;11.10;83.60;;;;;;5055527;28;20507;-38
2022/10/07 23:26:07;;;;;;;15.07;3.38;;;11.10;83.30;;;;;;5053902;28;20495;-38
2022/10/07 23:28:34;;;;;;;10.02;3.05;;;11.20;82.90;;;;;;5055053;28;20037;-37
2022/10/07 23:31:05;;;;;;;15.75;3.80;;;11.10;83.20;;;;;;5054920;28;20514;-40
2022/10/07 23:33:31;;;;;;;10.40;3.92;;;11.20;83.20;;;;;;5054884;28;20159;-40
2022/10/07 23:35:59;;;;;;;12.40;3.20;;;11.20;82.90;;;;;;5053398;28;20599;-39
2022/10/07 23:38:25;;;;;;;9.57;3.65;;;11.30;82.50;;;;;;5054814;28;20496;-40
2022/10/07 23:40:54;;;;;;;13.02;3.15;;;11.30;82.40;;;;;;5054581;28;20428;-38
2022/10/07 23:43:20;;;;;;;10.30;3.83;;;11.30;82.50;;;;;;5054465;28;20547;-39
2022/10/07 23:45:46;;;;;;;8.82;4.07;;;11.40;82.00;;;;;;5054576;28;20036;-38
2022/10/07 23:48:13;;;;;;;13.63;3.42;;;11.40;81.80;;;;;;5054625;28;20037;-39
2022/10/07 23:50:43;;;;;;;14.95;3.17;;;11.40;81.70;;;;;;5054670;28;20075;-39
2022/10/07 23:53:09;;;;;;;12.07;2.80;;;11.40;82.00;;;;;;5054443;28;20033;-38
2022/10/07 23:55:35;;;;;;;13.57;2.97;;;11.40;82.00;;;;;;5054323;28;20112;-38
2022/10/07 23:58:00;;;;;;;17.38;3.15;;;11.40;81.80;;;;;;5054127;28;20024;-39
